sensor_id;sensor_type;location;lat;lon;timestamp;temperature;humidity
7972;DHT22;4031;49.758;6.120;2023-06-22T00:01:28;19.00;99.90
7972;DHT22;4031;49.758;6.120;2023-06-22T00:03:53;18.90;99.90
7972;DHT22;4031;49.758;6.120;2023-06-22T00:06:19;18.90;99.90
7972;DHT22;4031;49.758;6.120;2023-06-22T00:08:45;18.90;99.90
7972;DHT22;4031;49.758;6.120;2023-06-22T00:11:11;18.90;99.90
7972;DHT22;4031;49.758;6.120;2023-06-22T00:13:37;18.90;99.90
7972;DHT22;4031;49.758;6.120;2023-06-22T00:16:04;18.90;99.90
7972;DHT22;4031;49.758;6.120;2023-06-22T00:18:30;18.90;99.90
7972;DHT22;4031;49.758;6.120;2023-06-22T00:20:56;18.90;99.90
7972;DHT22;4031;49.758;6.120;2023-06-22T00:23:23;18.90;99.90
7972;DHT22;4031;49.758;6.120;2023-06-22T00:25:49;18.80;99.90
7972;DHT22;4031;49.758;6.120;2023-06-22T00:28:15;18.80;99.90
7972;DHT22;4031;49.758;6.120;2023-06-22T00:30:41;18.80;99.90
7972;DHT22;4031;49.758;6.120;2023-06-22T00:33:06;18.80;99.90
7972;DHT22;4031;49.758;6.120;2023-06-22T00:35:33;18.90;99.90
7972;DHT22;4031;49.758;6.120;2023-06-22T00:38:00;18.80;99.90
7972;DHT22;4031;49.758;6.120;2023-06-22T00:40:33;18.80;99.90
7972;DHT22;4031;49.758;6.120;2023-06-22T00:42:59;18.80;99.90
7972;DHT22;4031;49.758;6.120;2023-06-22T00:45:26;18.80;99.90
7972;DHT22;4031;49.758;6.120;2023-06-22T00:47:53;18.80;99.90
7972;DHT22;4031;49.758;6.120;2023-06-22T00:50:24;18.80;99.90
7972;DHT22;4031;49.758;6.120;2023-06-22T00:52:52;18.80;99.90
7972;DHT22;4031;49.758;6.120;2023-06-22T00:55:22;18.80;99.90
7972;DHT22;4031;49.758;6.120;2023-06-22T00:57:48;18.80;99.90
7972;DHT22;4031;49.758;6.120;2023-06-22T01:00:15;18.70;99.90
7972;DHT22;4031;49.758;6.120;2023-06-22T01:02:43;18.70;99.90
7972;DHT22;4031;49.758;6.120;2023-06-22T01:05:13;18.70;99.90
7972;DHT22;4031;49.758;6.120;2023-06-22T01:08:07;18.70;99.90
7972;DHT22;4031;49.758;6.120;2023-06-22T01:11:09;18.80;99.90
7972;DHT22;4031;49.758;6.120;2023-06-22T01:13:59;18.80;99.90
7972;DHT22;4031;49.758;6.120;2023-06-22T01:16:38;18.80;99.90
7972;DHT22;4031;49.758;6.120;2023-06-22T01:21:48;18.80;99.90
7972;DHT22;4031;49.758;6.120;2023-06-22T01:24:32;18.80;99.90
7972;DHT22;4031;49.758;6.120;2023-06-22T01:29:51;18.80;99.90
7972;DHT22;4031;49.758;6.120;2023-06-22T01:32:19;18.70;99.90
7972;DHT22;4031;49.758;6.120;2023-06-22T01:34:47;18.70;99.90
7972;DHT22;4031;49.758;6.120;2023-06-22T01:37:15;18.70;99.90
7972;DHT22;4031;49.758;6.120;2023-06-22T01:39:41;18.70;99.90
7972;DHT22;4031;49.758;6.120;2023-06-22T01:42:07;18.70;99.90
7972;DHT22;4031;49.758;6.120;2023-06-22T01:44:33;18.70;99.90
7972;DHT22;4031;49.758;6.120;2023-06-22T01:46:59;18.60;99.90
7972;DHT22;4031;49.758;6.120;2023-06-22T01:49:25;18.60;99.90
7972;DHT22;4031;49.758;6.120;2023-06-22T01:51:51;18.50;99.90
7972;DHT22;4031;49.758;6.120;2023-06-22T01:54:17;18.60;99.90
7972;DHT22;4031;49.758;6.120;2023-06-22T01:56:42;18.60;99.90
7972;DHT22;4031;49.758;6.120;2023-06-22T01:59:17;18.50;99.90
7972;DHT22;4031;49.758;6.120;2023-06-22T02:02:16;18.60;99.90
7972;DHT22;4031;49.758;6.120;2023-06-22T02:04:53;18.50;99.90
7972;DHT22;4031;49.758;6.120;2023-06-22T02:07:23;18.40;99.90
7972;DHT22;4031;49.758;6.120;2023-06-22T02:09:55;18.40;99.90
7972;DHT22;4031;49.758;6.120;2023-06-22T02:12:23;18.30;99.90
7972;DHT22;4031;49.758;6.120;2023-06-22T02:14:51;18.30;99.90
7972;DHT22;4031;49.758;6.120;2023-06-22T02:17:18;18.30;99.90
7972;DHT22;4031;49.758;6.120;2023-06-22T02:19:44;18.20;99.90
7972;DHT22;4031;49.758;6.120;2023-06-22T02:22:09;18.20;99.90
7972;DHT22;4031;49.758;6.120;2023-06-22T02:24:35;18.10;99.90
7972;DHT22;4031;49.758;6.120;2023-06-22T02:27:02;18.10;99.90
7972;DHT22;4031;49.758;6.120;2023-06-22T02:29:28;18.10;99.90
7972;DHT22;4031;49.758;6.120;2023-06-22T02:31:54;18.00;99.90
7972;DHT22;4031;49.758;6.120;2023-06-22T02:34:21;18.00;99.90
7972;DHT22;4031;49.758;6.120;2023-06-22T02:36:48;18.00;99.90
7972;DHT22;4031;49.758;6.120;2023-06-22T02:39:22;17.90;99.90
7972;DHT22;4031;49.758;6.120;2023-06-22T02:41:53;17.90;99.90
7972;DHT22;4031;49.758;6.120;2023-06-22T02:44:20;18.00;99.90
7972;DHT22;4031;49.758;6.120;2023-06-22T02:46:47;17.90;99.90
7972;DHT22;4031;49.758;6.120;2023-06-22T02:49:12;18.00;99.90
7972;DHT22;4031;49.758;6.120;2023-06-22T02:51:45;18.00;99.90
7972;DHT22;4031;49.758;6.120;2023-06-22T02:54:11;17.90;99.90
7972;DHT22;4031;49.758;6.120;2023-06-22T02:56:37;17.90;99.90
7972;DHT22;4031;49.758;6.120;2023-06-22T02:59:03;17.90;99.90
7972;DHT22;4031;49.758;6.120;2023-06-22T03:01:29;17.80;99.90
7972;DHT22;4031;49.758;6.120;2023-06-22T03:03:56;17.80;99.90
7972;DHT22;4031;49.758;6.120;2023-06-22T03:06:22;17.70;99.90
7972;DHT22;4031;49.758;6.120;2023-06-22T03:08:51;17.60;99.90
7972;DHT22;4031;49.758;6.120;2023-06-22T03:11:17;17.50;99.90
7972;DHT22;4031;49.758;6.120;2023-06-22T03:13:43;17.50;99.90
7972;DHT22;4031;49.758;6.120;2023-06-22T03:16:10;17.50;99.90
7972;DHT22;4031;49.758;6.120;2023-06-22T03:18:36;17.40;99.90
7972;DHT22;4031;49.758;6.120;2023-06-22T03:21:02;17.50;99.90
7972;DHT22;4031;49.758;6.120;2023-06-22T03:23:28;17.50;99.90
7972;DHT22;4031;49.758;6.120;2023-06-22T03:25:53;17.50;99.90
7972;DHT22;4031;49.758;6.120;2023-06-22T03:28:21;17.50;99.90
7972;DHT22;4031;49.758;6.120;2023-06-22T03:30:47;17.60;99.90
7972;DHT22;4031;49.758;6.120;2023-06-22T03:33:13;17.60;99.90
7972;DHT22;4031;49.758;6.120;2023-06-22T03:35:39;17.60;99.90
7972;DHT22;4031;49.758;6.120;2023-06-22T03:38:04;17.60;99.90
7972;DHT22;4031;49.758;6.120;2023-06-22T03:40:30;17.70;99.90
7972;DHT22;4031;49.758;6.120;2023-06-22T03:42:56;17.70;99.90
7972;DHT22;4031;49.758;6.120;2023-06-22T03:45:21;17.70;99.90
7972;DHT22;4031;49.758;6.120;2023-06-22T03:47:47;17.70;99.90
7972;DHT22;4031;49.758;6.120;2023-06-22T03:50:13;17.70;99.90
7972;DHT22;4031;49.758;6.120;2023-06-22T03:52:40;17.80;99.90
7972;DHT22;4031;49.758;6.120;2023-06-22T03:55:06;17.80;99.90
7972;DHT22;4031;49.758;6.120;2023-06-22T03:57:32;17.80;99.90
7972;DHT22;4031;49.758;6.120;2023-06-22T03:59:58;17.90;99.90
7972;DHT22;4031;49.758;6.120;2023-06-22T04:02:24;17.80;99.90
7972;DHT22;4031;49.758;6.120;2023-06-22T04:04:50;17.90;99.90
7972;DHT22;4031;49.758;6.120;2023-06-22T04:07:16;17.90;99.90
7972;DHT22;4031;49.758;6.120;2023-06-22T04:09:43;17.90;99.90
7972;DHT22;4031;49.758;6.120;2023-06-22T04:12:09;17.90;99.90
7972;DHT22;4031;49.758;6.120;2023-06-22T04:14:35;18.00;99.90
7972;DHT22;4031;49.758;6.120;2023-06-22T04:17:01;18.00;99.90
7972;DHT22;4031;49.758;6.120;2023-06-22T04:19:27;18.00;99.90
7972;DHT22;4031;49.758;6.120;2023-06-22T04:21:52;18.10;99.90
7972;DHT22;4031;49.758;6.120;2023-06-22T04:24:18;18.10;99.90
7972;DHT22;4031;49.758;6.120;2023-06-22T04:26:44;18.10;99.90
7972;DHT22;4031;49.758;6.120;2023-06-22T04:29:12;18.20;99.90
7972;DHT22;4031;49.758;6.120;2023-06-22T04:31:38;18.20;99.90
7972;DHT22;4031;49.758;6.120;2023-06-22T04:34:06;18.20;99.90
7972;DHT22;4031;49.758;6.120;2023-06-22T04:39:04;18.20;99.90
7972;DHT22;4031;49.758;6.120;2023-06-22T04:41:30;18.30;99.90
7972;DHT22;4031;49.758;6.120;2023-06-22T04:44:07;18.30;99.90
7972;DHT22;4031;49.758;6.120;2023-06-22T04:46:34;18.30;99.90
7972;DHT22;4031;49.758;6.120;2023-06-22T04:49:07;18.30;99.90
7972;DHT22;4031;49.758;6.120;2023-06-22T04:51:42;18.20;99.90
7972;DHT22;4031;49.758;6.120;2023-06-22T04:54:08;18.20;99.90
7972;DHT22;4031;49.758;6.120;2023-06-22T04:56:35;18.20;99.90
7972;DHT22;4031;49.758;6.120;2023-06-22T04:59:01;18.40;99.90
7972;DHT22;4031;49.758;6.120;2023-06-22T05:01:28;18.40;99.90
7972;DHT22;4031;49.758;6.120;2023-06-22T05:03:56;18.50;99.90
7972;DHT22;4031;49.758;6.120;2023-06-22T05:06:23;18.60;99.90
7972;DHT22;4031;49.758;6.120;2023-06-22T05:08:56;18.70;99.90
7972;DHT22;4031;49.758;6.120;2023-06-22T05:11:28;18.80;99.90
7972;DHT22;4031;49.758;6.120;2023-06-22T05:13:54;18.90;99.90
7972;DHT22;4031;49.758;6.120;2023-06-22T05:16:22;19.10;99.90
7972;DHT22;4031;49.758;6.120;2023-06-22T05:18:53;19.00;99.90
7972;DHT22;4031;49.758;6.120;2023-06-22T05:21:24;19.00;99.90
7972;DHT22;4031;49.758;6.120;2023-06-22T05:23:51;19.10;99.90
7972;DHT22;4031;49.758;6.120;2023-06-22T05:26:19;19.10;99.90
7972;DHT22;4031;49.758;6.120;2023-06-22T05:28:45;19.20;99.90
7972;DHT22;4031;49.758;6.120;2023-06-22T05:31:16;19.20;99.90
7972;DHT22;4031;49.758;6.120;2023-06-22T05:33:43;19.20;99.90
7972;DHT22;4031;49.758;6.120;2023-06-22T05:36:09;19.20;99.90
7972;DHT22;4031;49.758;6.120;2023-06-22T05:38:36;19.20;99.90
7972;DHT22;4031;49.758;6.120;2023-06-22T05:41:02;19.20;99.90
7972;DHT22;4031;49.758;6.120;2023-06-22T05:43:28;19.30;99.90
7972;DHT22;4031;49.758;6.120;2023-06-22T05:45:54;19.40;99.90
7972;DHT22;4031;49.758;6.120;2023-06-22T05:48:19;19.60;99.90
7972;DHT22;4031;49.758;6.120;2023-06-22T05:50:45;19.70;99.90
7972;DHT22;4031;49.758;6.120;2023-06-22T05:53:11;19.90;99.90
7972;DHT22;4031;49.758;6.120;2023-06-22T05:55:37;20.00;99.90
7972;DHT22;4031;49.758;6.120;2023-06-22T05:58:03;20.20;99.90
7972;DHT22;4031;49.758;6.120;2023-06-22T06:00:29;20.30;99.90
7972;DHT22;4031;49.758;6.120;2023-06-22T06:02:55;20.40;99.90
7972;DHT22;4031;49.758;6.120;2023-06-22T06:05:21;20.50;99.90
7972;DHT22;4031;49.758;6.120;2023-06-22T06:07:48;20.50;99.90
7972;DHT22;4031;49.758;6.120;2023-06-22T06:10:14;20.50;99.90
7972;DHT22;4031;49.758;6.120;2023-06-22T06:12:39;20.40;99.90
7972;DHT22;4031;49.758;6.120;2023-06-22T06:15:05;20.40;99.90
7972;DHT22;4031;49.758;6.120;2023-06-22T06:17:31;20.60;99.90
7972;DHT22;4031;49.758;6.120;2023-06-22T06:19:59;20.90;99.90
7972;DHT22;4031;49.758;6.120;2023-06-22T06:22:25;21.40;99.90
7972;DHT22;4031;49.758;6.120;2023-06-22T06:24:50;22.00;99.90
7972;DHT22;4031;49.758;6.120;2023-06-22T06:27:16;23.00;99.90
7972;DHT22;4031;49.758;6.120;2023-06-22T06:29:44;24.00;99.90
7972;DHT22;4031;49.758;6.120;2023-06-22T06:32:14;25.10;99.90
7972;DHT22;4031;49.758;6.120;2023-06-22T06:34:39;25.70;99.90
7972;DHT22;4031;49.758;6.120;2023-06-22T06:37:06;26.00;99.90
7972;DHT22;4031;49.758;6.120;2023-06-22T06:39:31;25.90;99.90
7972;DHT22;4031;49.758;6.120;2023-06-22T06:41:57;25.80;99.90
7972;DHT22;4031;49.758;6.120;2023-06-22T06:44:23;25.60;99.90
7972;DHT22;4031;49.758;6.120;2023-06-22T06:46:48;25.30;99.90
7972;DHT22;4031;49.758;6.120;2023-06-22T06:49:14;25.10;99.90
7972;DHT22;4031;49.758;6.120;2023-06-22T06:51:40;25.20;99.90
7972;DHT22;4031;49.758;6.120;2023-06-22T06:54:05;25.60;99.90
7972;DHT22;4031;49.758;6.120;2023-06-22T06:56:31;25.90;99.90
7972;DHT22;4031;49.758;6.120;2023-06-22T06:58:58;26.40;99.90
7972;DHT22;4031;49.758;6.120;2023-06-22T07:01:24;26.90;99.90
7972;DHT22;4031;49.758;6.120;2023-06-22T07:03:50;27.30;99.90
7972;DHT22;4031;49.758;6.120;2023-06-22T07:06:16;27.80;99.90
7972;DHT22;4031;49.758;6.120;2023-06-22T07:08:42;28.30;99.90
7972;DHT22;4031;49.758;6.120;2023-06-22T07:11:08;28.80;99.90
7972;DHT22;4031;49.758;6.120;2023-06-22T07:13:34;29.10;99.90
7972;DHT22;4031;49.758;6.120;2023-06-22T07:15:59;28.80;99.90
7972;DHT22;4031;49.758;6.120;2023-06-22T07:18:25;28.60;99.90
7972;DHT22;4031;49.758;6.120;2023-06-22T07:20:52;28.90;99.90
7972;DHT22;4031;49.758;6.120;2023-06-22T07:23:18;29.30;99.90
7972;DHT22;4031;49.758;6.120;2023-06-22T07:25:43;29.70;99.90
7972;DHT22;4031;49.758;6.120;2023-06-22T07:28:09;29.80;99.90
7972;DHT22;4031;49.758;6.120;2023-06-22T07:30:35;29.80;99.90
7972;DHT22;4031;49.758;6.120;2023-06-22T07:33:01;30.20;99.90
7972;DHT22;4031;49.758;6.120;2023-06-22T07:35:33;30.50;99.90
7972;DHT22;4031;49.758;6.120;2023-06-22T07:37:59;30.80;99.90
7972;DHT22;4031;49.758;6.120;2023-06-22T07:40:25;30.80;99.90
7972;DHT22;4031;49.758;6.120;2023-06-22T07:42:50;31.00;99.90
7972;DHT22;4031;49.758;6.120;2023-06-22T07:45:19;31.00;99.90
7972;DHT22;4031;49.758;6.120;2023-06-22T07:47:45;30.90;99.90
7972;DHT22;4031;49.758;6.120;2023-06-22T07:50:10;30.20;99.90
7972;DHT22;4031;49.758;6.120;2023-06-22T07:52:36;29.50;99.90
7972;DHT22;4031;49.758;6.120;2023-06-22T07:55:02;28.50;99.90
7972;DHT22;4031;49.758;6.120;2023-06-22T07:57:28;27.70;99.90
7972;DHT22;4031;49.758;6.120;2023-06-22T08:00:03;27.30;99.90
7972;DHT22;4031;49.758;6.120;2023-06-22T08:02:40;27.10;99.90
7972;DHT22;4031;49.758;6.120;2023-06-22T08:05:08;26.80;99.90
7972;DHT22;4031;49.758;6.120;2023-06-22T08:07:35;26.50;99.90
7972;DHT22;4031;49.758;6.120;2023-06-22T08:10:03;26.00;99.90
7972;DHT22;4031;49.758;6.120;2023-06-22T08:12:29;25.70;99.90
7972;DHT22;4031;49.758;6.120;2023-06-22T08:14:55;25.40;99.90
7972;DHT22;4031;49.758;6.120;2023-06-22T08:17:22;25.30;99.90
7972;DHT22;4031;49.758;6.120;2023-06-22T08:19:49;25.00;99.90
7972;DHT22;4031;49.758;6.120;2023-06-22T08:22:16;24.60;99.90
7972;DHT22;4031;49.758;6.120;2023-06-22T08:24:41;24.20;99.90
7972;DHT22;4031;49.758;6.120;2023-06-22T08:27:07;23.80;99.90
7972;DHT22;4031;49.758;6.120;2023-06-22T08:29:38;23.50;99.90
7972;DHT22;4031;49.758;6.120;2023-06-22T08:32:05;23.30;99.90
7972;DHT22;4031;49.758;6.120;2023-06-22T08:34:30;23.10;99.90
7972;DHT22;4031;49.758;6.120;2023-06-22T08:36:56;23.00;99.90
7972;DHT22;4031;49.758;6.120;2023-06-22T08:39:22;22.80;99.90
7972;DHT22;4031;49.758;6.120;2023-06-22T08:41:48;22.60;99.90
7972;DHT22;4031;49.758;6.120;2023-06-22T08:44:16;22.40;99.90
7972;DHT22;4031;49.758;6.120;2023-06-22T08:46:43;22.10;99.90
7972;DHT22;4031;49.758;6.120;2023-06-22T08:49:09;21.80;99.90
7972;DHT22;4031;49.758;6.120;2023-06-22T08:51:35;21.50;99.90
7972;DHT22;4031;49.758;6.120;2023-06-22T08:54:01;21.40;99.90
7972;DHT22;4031;49.758;6.120;2023-06-22T08:56:27;21.20;99.90
7972;DHT22;4031;49.758;6.120;2023-06-22T08:58:52;21.00;99.90
7972;DHT22;4031;49.758;6.120;2023-06-22T09:01:18;20.90;99.90
7972;DHT22;4031;49.758;6.120;2023-06-22T09:03:44;20.70;99.90
7972;DHT22;4031;49.758;6.120;2023-06-22T09:06:19;20.70;99.90
7972;DHT22;4031;49.758;6.120;2023-06-22T09:08:46;20.80;99.90
7972;DHT22;4031;49.758;6.120;2023-06-22T09:11:13;20.80;99.90
7972;DHT22;4031;49.758;6.120;2023-06-22T09:13:38;21.00;99.90
7972;DHT22;4031;49.758;6.120;2023-06-22T09:16:04;21.40;99.90
7972;DHT22;4031;49.758;6.120;2023-06-22T09:18:30;21.70;99.90
7972;DHT22;4031;49.758;6.120;2023-06-22T09:20:56;21.90;99.90
7972;DHT22;4031;49.758;6.120;2023-06-22T09:23:21;21.90;99.90
7972;DHT22;4031;49.758;6.120;2023-06-22T09:25:47;21.80;99.90
7972;DHT22;4031;49.758;6.120;2023-06-22T09:28:14;21.70;99.90
7972;DHT22;4031;49.758;6.120;2023-06-22T09:30:40;21.50;99.90
7972;DHT22;4031;49.758;6.120;2023-06-22T09:33:06;21.20;99.90
7972;DHT22;4031;49.758;6.120;2023-06-22T09:35:31;21.00;99.90
7972;DHT22;4031;49.758;6.120;2023-06-22T09:37:57;21.00;99.90
7972;DHT22;4031;49.758;6.120;2023-06-22T09:40:23;21.00;99.90
7972;DHT22;4031;49.758;6.120;2023-06-22T09:42:48;21.10;99.90
7972;DHT22;4031;49.758;6.120;2023-06-22T09:45:14;21.30;99.90
7972;DHT22;4031;49.758;6.120;2023-06-22T09:47:40;21.50;99.90
7972;DHT22;4031;49.758;6.120;2023-06-22T09:50:06;21.50;99.90
7972;DHT22;4031;49.758;6.120;2023-06-22T09:52:33;21.60;99.90
7972;DHT22;4031;49.758;6.120;2023-06-22T09:54:58;22.00;99.90
7972;DHT22;4031;49.758;6.120;2023-06-22T09:57:24;22.80;99.90
7972;DHT22;4031;49.758;6.120;2023-06-22T09:59:50;23.80;99.90
7972;DHT22;4031;49.758;6.120;2023-06-22T10:02:15;25.10;99.90
7972;DHT22;4031;49.758;6.120;2023-06-22T10:04:42;25.70;99.90
7972;DHT22;4031;49.758;6.120;2023-06-22T10:07:08;26.70;99.90
7972;DHT22;4031;49.758;6.120;2023-06-22T10:09:33;26.90;99.90
7972;DHT22;4031;49.758;6.120;2023-06-22T10:11:59;27.40;99.90
7972;DHT22;4031;49.758;6.120;2023-06-22T10:14:25;28.00;99.90
7972;DHT22;4031;49.758;6.120;2023-06-22T10:16:53;28.30;99.90
7972;DHT22;4031;49.758;6.120;2023-06-22T10:19:18;28.60;99.90
7972;DHT22;4031;49.758;6.120;2023-06-22T10:21:44;29.30;99.90
7972;DHT22;4031;49.758;6.120;2023-06-22T10:24:10;29.60;99.90
7972;DHT22;4031;49.758;6.120;2023-06-22T10:26:36;29.50;99.90
7972;DHT22;4031;49.758;6.120;2023-06-22T10:29:03;29.70;99.90
7972;DHT22;4031;49.758;6.120;2023-06-22T10:31:29;29.80;99.90
7972;DHT22;4031;49.758;6.120;2023-06-22T10:33:55;29.50;99.90
7972;DHT22;4031;49.758;6.120;2023-06-22T10:36:22;29.00;99.90
7972;DHT22;4031;49.758;6.120;2023-06-22T10:38:48;28.60;99.90
7972;DHT22;4031;49.758;6.120;2023-06-22T10:41:14;28.00;99.90
7972;DHT22;4031;49.758;6.120;2023-06-22T10:43:40;27.50;99.90
7972;DHT22;4031;49.758;6.120;2023-06-22T10:46:06;27.20;99.90
7972;DHT22;4031;49.758;6.120;2023-06-22T10:48:33;27.50;99.90
7972;DHT22;4031;49.758;6.120;2023-06-22T10:50:59;27.90;99.90
7972;DHT22;4031;49.758;6.120;2023-06-22T10:53:25;28.50;99.90
7972;DHT22;4031;49.758;6.120;2023-06-22T10:55:50;28.90;99.90
7972;DHT22;4031;49.758;6.120;2023-06-22T10:58:21;29.10;99.90
7972;DHT22;4031;49.758;6.120;2023-06-22T11:00:46;29.00;99.90
7972;DHT22;4031;49.758;6.120;2023-06-22T11:03:12;28.80;99.90
7972;DHT22;4031;49.758;6.120;2023-06-22T11:05:39;28.60;99.90
7972;DHT22;4031;49.758;6.120;2023-06-22T11:08:05;29.00;99.90
7972;DHT22;4031;49.758;6.120;2023-06-22T11:10:31;29.50;99.90
7972;DHT22;4031;49.758;6.120;2023-06-22T11:12:56;29.80;99.90
7972;DHT22;4031;49.758;6.120;2023-06-22T11:15:23;30.30;99.90
7972;DHT22;4031;49.758;6.120;2023-06-22T11:17:50;30.80;99.90
7972;DHT22;4031;49.758;6.120;2023-06-22T11:20:15;30.90;99.90
7972;DHT22;4031;49.758;6.120;2023-06-22T11:22:41;31.50;99.90
7972;DHT22;4031;49.758;6.120;2023-06-22T11:25:08;31.90;99.90
7972;DHT22;4031;49.758;6.120;2023-06-22T11:27:34;31.90;99.90
7972;DHT22;4031;49.758;6.120;2023-06-22T11:29:59;31.90;99.90
7972;DHT22;4031;49.758;6.120;2023-06-22T11:32:26;31.90;99.90
7972;DHT22;4031;49.758;6.120;2023-06-22T11:34:51;31.60;99.90
7972;DHT22;4031;49.758;6.120;2023-06-22T11:37:17;31.20;99.90
7972;DHT22;4031;49.758;6.120;2023-06-22T11:39:43;30.90;99.90
7972;DHT22;4031;49.758;6.120;2023-06-22T11:42:09;30.80;99.90
7972;DHT22;4031;49.758;6.120;2023-06-22T11:44:35;31.00;99.90
7972;DHT22;4031;49.758;6.120;2023-06-22T11:47:01;30.80;99.90
7972;DHT22;4031;49.758;6.120;2023-06-22T11:49:29;30.70;99.90
7972;DHT22;4031;49.758;6.120;2023-06-22T11:51:55;30.80;99.90
7972;DHT22;4031;49.758;6.120;2023-06-22T11:54:21;31.10;99.90
7972;DHT22;4031;49.758;6.120;2023-06-22T11:56:47;31.40;99.90
7972;DHT22;4031;49.758;6.120;2023-06-22T11:59:13;31.70;99.90
7972;DHT22;4031;49.758;6.120;2023-06-22T12:01:38;31.70;99.90
7972;DHT22;4031;49.758;6.120;2023-06-22T12:04:04;31.40;99.90
7972;DHT22;4031;49.758;6.120;2023-06-22T12:06:32;31.10;99.90
7972;DHT22;4031;49.758;6.120;2023-06-22T12:08:58;30.90;99.90
7972;DHT22;4031;49.758;6.120;2023-06-22T12:11:24;30.80;99.90
7972;DHT22;4031;49.758;6.120;2023-06-22T12:13:50;30.70;99.90
7972;DHT22;4031;49.758;6.120;2023-06-22T12:16:15;30.40;99.90
7972;DHT22;4031;49.758;6.120;2023-06-22T12:18:41;30.40;99.90
7972;DHT22;4031;49.758;6.120;2023-06-22T12:21:07;30.30;99.90
7972;DHT22;4031;49.758;6.120;2023-06-22T12:23:33;30.30;99.90
7972;DHT22;4031;49.758;6.120;2023-06-22T12:25:58;30.50;99.90
7972;DHT22;4031;49.758;6.120;2023-06-22T12:28:25;31.00;99.90
7972;DHT22;4031;49.758;6.120;2023-06-22T12:30:51;31.70;99.90
7972;DHT22;4031;49.758;6.120;2023-06-22T12:33:16;32.50;99.90
7972;DHT22;4031;49.758;6.120;2023-06-22T12:35:43;32.50;99.90
7972;DHT22;4031;49.758;6.120;2023-06-22T12:38:10;32.40;99.90
7972;DHT22;4031;49.758;6.120;2023-06-22T12:40:36;32.20;99.90
7972;DHT22;4031;49.758;6.120;2023-06-22T12:43:02;32.00;99.90
7972;DHT22;4031;49.758;6.120;2023-06-22T12:45:28;32.10;99.90
7972;DHT22;4031;49.758;6.120;2023-06-22T12:47:57;32.60;99.90
7972;DHT22;4031;49.758;6.120;2023-06-22T12:50:22;33.20;99.90
7972;DHT22;4031;49.758;6.120;2023-06-22T12:52:48;32.80;99.90
7972;DHT22;4031;49.758;6.120;2023-06-22T12:55:14;32.30;99.90
7972;DHT22;4031;49.758;6.120;2023-06-22T12:57:39;31.60;99.90
7972;DHT22;4031;49.758;6.120;2023-06-22T13:00:06;31.00;99.90
7972;DHT22;4031;49.758;6.120;2023-06-22T13:02:34;30.20;99.90
7972;DHT22;4031;49.758;6.120;2023-06-22T13:04:59;29.50;99.90
7972;DHT22;4031;49.758;6.120;2023-06-22T13:07:25;29.00;99.90
7972;DHT22;4031;49.758;6.120;2023-06-22T13:09:51;28.50;99.90
7972;DHT22;4031;49.758;6.120;2023-06-22T13:12:17;28.10;99.90
7972;DHT22;4031;49.758;6.120;2023-06-22T13:14:43;27.70;99.90
7972;DHT22;4031;49.758;6.120;2023-06-22T13:17:09;27.10;99.90
7972;DHT22;4031;49.758;6.120;2023-06-22T13:19:35;26.70;99.90
7972;DHT22;4031;49.758;6.120;2023-06-22T13:22:00;26.40;99.90
7972;DHT22;4031;49.758;6.120;2023-06-22T13:24:27;25.90;99.90
7972;DHT22;4031;49.758;6.120;2023-06-22T13:26:53;25.50;99.90
7972;DHT22;4031;49.758;6.120;2023-06-22T13:29:20;25.00;99.90
7972;DHT22;4031;49.758;6.120;2023-06-22T13:31:46;24.80;99.90
7972;DHT22;4031;49.758;6.120;2023-06-22T13:34:11;24.60;99.90
7972;DHT22;4031;49.758;6.120;2023-06-22T13:36:37;24.40;99.90
7972;DHT22;4031;49.758;6.120;2023-06-22T13:39:03;24.10;99.90
7972;DHT22;4031;49.758;6.120;2023-06-22T13:41:29;23.80;99.90
7972;DHT22;4031;49.758;6.120;2023-06-22T13:43:54;23.60;99.90
7972;DHT22;4031;49.758;6.120;2023-06-22T13:46:20;23.40;99.90
7972;DHT22;4031;49.758;6.120;2023-06-22T13:48:46;23.20;99.90
7972;DHT22;4031;49.758;6.120;2023-06-22T13:51:12;23.10;99.90
7972;DHT22;4031;49.758;6.120;2023-06-22T13:53:37;23.00;99.90
7972;DHT22;4031;49.758;6.120;2023-06-22T13:56:03;23.00;99.90
7972;DHT22;4031;49.758;6.120;2023-06-22T13:58:29;22.90;99.90
7972;DHT22;4031;49.758;6.120;2023-06-22T14:00:55;22.80;99.90
7972;DHT22;4031;49.758;6.120;2023-06-22T14:03:20;22.90;99.90
7972;DHT22;4031;49.758;6.120;2023-06-22T14:05:46;22.90;99.90
7972;DHT22;4031;49.758;6.120;2023-06-22T14:08:12;23.00;99.90
7972;DHT22;4031;49.758;6.120;2023-06-22T14:10:38;22.90;99.90
7972;DHT22;4031;49.758;6.120;2023-06-22T14:13:03;22.80;99.90
7972;DHT22;4031;49.758;6.120;2023-06-22T14:15:31;22.60;99.90
7972;DHT22;4031;49.758;6.120;2023-06-22T14:17:57;22.60;99.90
7972;DHT22;4031;49.758;6.120;2023-06-22T14:20:23;22.70;99.90
7972;DHT22;4031;49.758;6.120;2023-06-22T14:22:48;22.80;99.90
7972;DHT22;4031;49.758;6.120;2023-06-22T14:25:14;23.20;99.90
7972;DHT22;4031;49.758;6.120;2023-06-22T14:27:40;23.60;99.90
7972;DHT22;4031;49.758;6.120;2023-06-22T14:30:06;23.90;99.90
7972;DHT22;4031;49.758;6.120;2023-06-22T14:32:32;24.30;99.90
7972;DHT22;4031;49.758;6.120;2023-06-22T14:34:58;24.70;99.90
7972;DHT22;4031;49.758;6.120;2023-06-22T14:37:23;25.20;99.90
7972;DHT22;4031;49.758;6.120;2023-06-22T14:39:49;25.40;99.90
7972;DHT22;4031;49.758;6.120;2023-06-22T14:42:15;25.80;99.90
7972;DHT22;4031;49.758;6.120;2023-06-22T14:44:41;26.10;99.90
7972;DHT22;4031;49.758;6.120;2023-06-22T14:47:07;26.30;99.90
7972;DHT22;4031;49.758;6.120;2023-06-22T14:49:32;26.60;99.90
7972;DHT22;4031;49.758;6.120;2023-06-22T14:51:58;26.80;99.90
7972;DHT22;4031;49.758;6.120;2023-06-22T14:54:24;26.70;99.90
7972;DHT22;4031;49.758;6.120;2023-06-22T14:56:50;26.60;99.90
7972;DHT22;4031;49.758;6.120;2023-06-22T14:59:16;26.50;99.90
7972;DHT22;4031;49.758;6.120;2023-06-22T15:01:42;26.30;99.90
7972;DHT22;4031;49.758;6.120;2023-06-22T15:04:07;26.50;99.90
7972;DHT22;4031;49.758;6.120;2023-06-22T15:06:33;26.60;99.90
7972;DHT22;4031;49.758;6.120;2023-06-22T15:08:59;26.70;99.90
7972;DHT22;4031;49.758;6.120;2023-06-22T15:11:24;27.00;99.90
7972;DHT22;4031;49.758;6.120;2023-06-22T15:13:50;27.20;99.90
7972;DHT22;4031;49.758;6.120;2023-06-22T15:16:16;27.30;99.90
7972;DHT22;4031;49.758;6.120;2023-06-22T15:18:41;27.40;99.90
7972;DHT22;4031;49.758;6.120;2023-06-22T15:21:07;27.40;99.90
7972;DHT22;4031;49.758;6.120;2023-06-22T15:23:33;27.50;99.90
7972;DHT22;4031;49.758;6.120;2023-06-22T15:26:02;27.70;99.90
7972;DHT22;4031;49.758;6.120;2023-06-22T15:28:30;27.70;99.90
7972;DHT22;4031;49.758;6.120;2023-06-22T15:30:57;28.00;99.90
7972;DHT22;4031;49.758;6.120;2023-06-22T15:33:24;28.40;99.90
7972;DHT22;4031;49.758;6.120;2023-06-22T15:35:50;28.50;99.90
7972;DHT22;4031;49.758;6.120;2023-06-22T15:38:18;28.20;99.90
7972;DHT22;4031;49.758;6.120;2023-06-22T15:40:43;27.90;99.90
7972;DHT22;4031;49.758;6.120;2023-06-22T15:43:12;27.20;99.90
7972;DHT22;4031;49.758;6.120;2023-06-22T15:45:39;26.60;99.90
7972;DHT22;4031;49.758;6.120;2023-06-22T15:48:05;26.20;99.90
7972;DHT22;4031;49.758;6.120;2023-06-22T15:50:31;25.70;99.90
7972;DHT22;4031;49.758;6.120;2023-06-22T15:52:56;25.30;99.90
7972;DHT22;4031;49.758;6.120;2023-06-22T15:55:22;24.80;99.90
7972;DHT22;4031;49.758;6.120;2023-06-22T15:57:48;24.40;99.90
7972;DHT22;4031;49.758;6.120;2023-06-22T16:00:16;24.00;99.90
7972;DHT22;4031;49.758;6.120;2023-06-22T16:02:46;23.70;99.90
7972;DHT22;4031;49.758;6.120;2023-06-22T16:05:13;23.50;99.90
7972;DHT22;4031;49.758;6.120;2023-06-22T16:07:39;23.30;99.90